Time;durP1;ratioP1;P1;durP2;ratioP2;P2;SDS_P1;SDS_P2;PMS_P1;PMS_P2;Temp;Humidity;BMP_temperature;BMP_pressure;BME280_temperature;BME280_humidity;BME280_pressure;Samples;Min_cycle;Max_cycle;Signal;HPM_P1;HPM_P2
2021/08/24 00:00:57;;;;;;;0.10;0.10;;;;;;;19.24;60.78;102871.00;4978354;28;20465;-92
2021/08/24 00:03:26;;;;;;;0.05;0.05;;;;;;;19.28;60.43;102874.47;4978300;28;20045;-94
2021/08/24 00:05:52;;;;;;;0.10;0.10;;;;;;;19.22;60.62;102880.88;4995383;28;20037;-93
2021/08/24 00:08:19;;;;;;;0.10;0.10;;;;;;;19.17;60.63;102888.19;4995823;28;20050;-96
2021/08/24 00:10:49;;;;;;;0.00;0.00;;;;;;;19.16;60.54;102876.53;4995097;28;20065;-93
2021/08/24 00:13:23;;;;;;;0.05;0.05;;;;;;;19.16;60.56;102878.34;4978172;28;20037;-94
2021/08/24 00:15:51;;;;;;;0.00;0.00;;;;;;;19.11;60.67;102878.44;4995135;28;20034;-94
2021/08/24 00:18:18;;;;;;;0.10;0.10;;;;;;;19.08;60.97;102879.41;4994911;28;20117;-94
2021/08/24 00:20:48;;;;;;;0.55;0.30;;;;;;;19.07;60.75;102877.63;4995011;28;20058;-94
2021/08/24 00:23:17;;;;;;;0.00;0.00;;;;;;;19.04;60.57;102877.72;4994847;28;20041;-86
2021/08/24 00:25:43;;;;;;;0.05;0.05;;;;;;;19.01;60.52;102877.78;4994646;28;20138;-94
2021/08/24 00:28:10;;;;;;;0.10;0.10;;;;;;;18.96;60.88;102874.31;4994464;28;20042;-95
2021/08/24 00:30:38;;;;;;;0.08;0.08;;;;;;;18.89;61.44;102875.31;4995084;28;20027;-95
2021/08/24 00:33:07;;;;;;;0.30;0.30;;;;;;;18.86;60.76;102872.72;4993454;28;20082;-94
2021/08/24 00:35:39;;;;;;;0.08;0.08;;;;;;;18.85;60.69;102873.63;4994878;28;20054;-95
2021/08/24 00:38:07;;;;;;;0.10;0.10;;;;;;;18.79;61.04;102874.69;4994668;28;20049;-93
2021/08/24 00:40:40;;;;;;;0.25;0.25;;;;;;;18.72;60.95;102871.22;4977445;28;20473;-89
2021/08/24 00:43:09;;;;;;;0.17;0.17;;;;;;;18.67;60.97;102867.75;4994636;28;20378;-94
2021/08/24 00:45:42;;;;;;;0.10;0.10;;;;;;;18.68;60.92;102874.91;4994680;28;20058;-94
2021/08/24 00:48:10;;;;;;;0.10;0.10;;;;;;;18.61;61.02;102875.94;4995066;28;20054;-94
2021/08/24 00:50:41;;;;;;;0.75;0.75;;;;;;;18.59;61.28;102877.78;4977471;28;20429;-92
2021/08/24 00:53:11;;;;;;;0.10;0.10;;;;;;;18.53;61.42;102875.22;4994466;28;20054;-94
2021/08/24 00:55:42;;;;;;;0.10;0.10;;;;;;;18.50;61.37;102875.28;4994926;28;20035;-95
2021/08/24 00:58:11;;;;;;;0.00;0.00;;;;;;;18.47;61.16;102886.97;4994403;28;20023;-93
2021/08/24 01:00:40;;;;;;;0.05;0.05;;;;;;;18.42;61.46;102889.75;4994246;28;20110;-94
2021/08/24 01:03:10;;;;;;;0.10;0.10;;;;;;;18.41;61.70;102885.28;4977731;28;20039;-95
2021/08/24 01:05:39;;;;;;;0.05;0.05;;;;;;;18.37;61.75;102891.66;4994943;28;20034;-94
2021/08/24 01:08:45;;;;;;;0.32;0.32;;;;;;;18.37;61.47;102885.41;4994317;28;20081;-94
2021/08/24 01:17:27;;;;;;;0.10;0.10;;;;;;;18.22;62.01;102889.28;5112148;27;20401;-93
2021/08/24 01:23:49;;;;;;;0.10;0.10;;;;;;;18.29;61.18;102888.22;5071078;28;20421;-95
2021/08/24 01:26:36;;;;;;;0.10;0.10;;;;;;;18.23;61.44;102888.34;5071602;28;20394;-94
2021/08/24 01:32:48;;;;;;;0.03;0.03;;;;;;;18.15;61.96;102891.19;5072319;27;20417;-96
2021/08/24 01:35:30;;;;;;;0.10;0.10;;;;;;;18.13;61.97;102893.03;5081617;28;20043;-95
2021/08/24 01:38:16;;;;;;;;;;;;;;;18.19;61.78;102895.56;5091750;22;20021;-86
2021/08/24 01:43:43;;;;;;;0.10;0.10;;;;;;;18.01;61.91;102899.50;5091016;27;20392;-87
2021/08/24 01:46:23;;;;;;;0.00;0.00;;;;;;;18.01;61.99;102894.13;5090948;28;20032;-86
2021/08/24 01:48:53;;;;;;;0.10;0.10;;;;;;;17.95;61.70;102905.84;5081319;28;20033;-86
2021/08/24 01:51:25;;;;;;;0.10;0.10;;;;;;;17.90;62.35;102906.81;5070774;28;20068;-87
2021/08/24 01:56:38;;;;;;;0.30;0.22;;;;;;;17.89;62.31;102905.91;5091039;27;20399;-86
2021/08/24 01:59:19;;;;;;;0.00;0.00;;;;;;;17.93;62.70;102913.03;5059072;28;20029;-87
2021/08/24 02:02:02;;;;;;;0.10;0.10;;;;;;;17.91;62.34;102911.28;5050736;28;20040;-87
2021/08/24 02:04:37;;;;;;;0.10;0.10;;;;;;;17.89;62.26;102907.72;5051051;28;20120;-87
2021/08/24 02:07:08;;;;;;;0.03;0.03;;;;;;;17.86;62.39;102905.13;5050568;28;20527;-86
2021/08/24 02:09:40;;;;;;;0.10;0.10;;;;;;;17.86;62.26;102913.16;5050490;28;20038;-86
2021/08/24 02:12:09;;;;;;;0.05;0.05;;;;;;;17.79;63.28;102910.59;5050714;28;20029;-86
2021/08/24 02:14:38;;;;;;;0.10;0.10;;;;;;;17.76;63.65;102910.63;5050776;28;20468;-86
2021/08/24 02:17:07;;;;;;;0.30;0.30;;;;;;;17.77;62.60;102914.22;5050282;28;20395;-86
2021/08/24 02:19:48;;;;;;;0.10;0.10;;;;;;;17.83;62.25;102921.25;5050806;28;20017;-86
2021/08/24 02:22:21;;;;;;;0.10;0.10;;;;;;;17.73;63.12;102916.06;5050388;28;20037;-87
2021/08/24 02:24:53;;;;;;;0.10;0.10;;;;;;;17.75;62.74;102919.56;5050567;28;20472;-86
2021/08/24 02:27:26;;;;;;;0.80;0.80;;;;;;;17.77;63.26;102923.13;5050579;28;20033;-87
2021/08/24 02:29:54;;;;;;;0.10;0.10;;;;;;;17.78;62.43;102924.00;5050179;28;20021;-86
2021/08/24 02:32:28;;;;;;;0.20;0.20;;;;;;;17.68;63.34;102923.25;5050470;28;20033;-86
2021/08/24 02:37:48;;;;;;;0.08;0.08;;;;;;;17.73;63.37;102926.78;5091035;27;20414;-86
2021/08/24 02:40:33;;;;;;;0.10;0.10;;;;;;;17.83;62.76;102926.59;5050920;28;20049;-85
2021/08/24 02:43:15;;;;;;;0.10;0.10;;;;;;;17.80;63.11;102932.91;5050668;28;20140;-87
2021/08/24 02:45:51;;;;;;;0.00;0.00;;;;;;;17.76;63.03;102926.72;5050955;28;20104;-86
2021/08/24 02:48:19;;;;;;;0.10;0.10;;;;;;;17.72;62.81;102925.00;5050579;28;20021;-86
2021/08/24 02:50:46;;;;;;;0.10;0.10;;;;;;;17.75;62.76;102938.34;5050758;28;20128;-86
2021/08/24 02:53:14;;;;;;;0.00;0.00;;;;;;;17.78;62.66;102938.31;5050822;28;20460;-86
2021/08/24 02:55:40;;;;;;;0.15;0.15;;;;;;;17.76;62.67;102937.44;5050763;28;20451;-86
2021/08/24 02:58:07;;;;;;;0.30;0.30;;;;;;;17.74;63.03;102930.34;5050371;28;20029;-86
2021/08/24 03:00:33;;;;;;;0.03;0.03;;;;;;;17.76;63.13;102931.19;5050475;28;20021;-86
2021/08/24 03:02:59;;;;;;;0.17;0.17;;;;;;;17.74;63.73;102928.53;5050521;28;20469;-86
2021/08/24 03:05:26;;;;;;;0.10;0.10;;;;;;;17.71;64.13;102939.31;5050361;28;20553;-86
2021/08/24 03:10:34;;;;;;;0.60;0.60;;;;;;;17.71;63.82;102923.22;5050090;28;20388;-96
2021/08/24 03:19:04;;;;;;;0.10;0.10;;;;;;;17.72;64.18;102921.41;5062027;28;20410;-95
2021/08/24 03:21:34;;;;;;;0.10;0.10;;;;;;;17.76;64.04;102925.84;5051728;28;20061;-96
2021/08/24 03:24:03;;;;;;;0.10;0.10;;;;;;;17.76;63.82;102921.34;5051519;28;20029;-95
2021/08/24 03:26:34;;;;;;;0.10;0.10;;;;;;;17.76;64.13;102926.72;5050424;28;20116;-96
2021/08/24 03:29:09;;;;;;;0.08;0.08;;;;;;;17.80;63.90;102924.88;5050303;28;20032;-96
2021/08/24 03:31:44;;;;;;;;;;;;;;;17.87;64.87;102931.00;5051823;28;20112;-96
2021/08/24 03:34:10;;;;;;;0.10;0.10;;;;;;;17.77;64.36;102930.28;5051392;28;19920;-96
2021/08/24 03:36:37;;;;;;;0.10;0.10;;;;;;;17.71;64.77;102928.59;5051349;28;20033;-96
2021/08/24 03:39:04;;;;;;;0.22;0.22;;;;;;;17.79;64.27;102933.81;5051206;28;20053;-96
2021/08/24 03:41:30;;;;;;;0.15;0.15;;;;;;;17.76;64.67;102931.19;5051290;28;20040;-96
2021/08/24 03:43:57;;;;;;;0.10;0.10;;;;;;;17.79;64.07;102929.34;5051158;28;20029;-96
2021/08/24 03:46:23;;;;;;;0.20;0.20;;;;;;;17.77;64.48;102931.16;5051124;28;20025;-96
2021/08/24 03:48:50;;;;;;;0.10;0.10;;;;;;;17.77;65.80;102933.84;5066500;28;20442;-96
2021/08/24 03:51:16;;;;;;;0.30;0.30;;;;;;;17.78;65.46;102924.91;5051202;28;20026;-96
2021/08/24 03:53:42;;;;;;;0.10;0.10;;;;;;;17.71;66.35;102933.94;5050901;28;20025;-96
2021/08/24 03:56:09;;;;;;;0.10;0.10;;;;;;;17.86;64.72;102929.25;5051029;28;20029;-96
2021/08/24 03:58:43;;;;;;;0.10;0.10;;;;;;;17.88;64.60;102935.44;5049519;28;20033;-96
2021/08/24 04:01:15;;;;;;;0.10;0.10;;;;;;;17.90;64.98;102930.97;5066683;28;20835;-96
2021/08/24 04:03:46;;;;;;;0.10;0.10;;;;;;;17.78;66.06;102930.25;5050681;28;20022;-96
2021/08/24 04:06:12;;;;;;;0.10;0.10;;;;;;;17.83;66.52;102929.28;5049671;28;20432;-96
2021/08/24 04:08:45;;;;;;;0.75;0.75;;;;;;;17.97;64.94;102938.03;5050910;28;20034;-96
2021/08/24 04:11:12;;;;;;;0.20;0.20;;;;;;;17.94;65.25;102930.91;5049896;28;20033;-96
2021/08/24 04:13:38;;;;;;;0.10;0.10;;;;;;;17.92;64.74;102935.38;5050112;28;20115;-96
2021/08/24 04:16:07;;;;;;;0.10;0.10;;;;;;;17.95;65.46;102942.53;5051179;28;20029;-96
2021/08/24 04:18:37;;;;;;;1.98;0.45;;;;;;;17.98;65.68;102942.47;5050636;28;20044;-96
2021/08/24 04:21:08;;;;;;;0.05;0.05;;;;;;;18.05;65.05;102944.13;5051056;28;20087;-96
2021/08/24 04:23:34;;;;;;;0.10;0.10;;;;;;;17.99;64.63;102943.34;5050844;28;20083;-96
2021/08/24 04:26:00;;;;;;;0.10;0.10;;;;;;;18.00;65.06;102948.69;5051335;28;20029;-96
2021/08/24 04:28:27;;;;;;;0.10;0.10;;;;;;;18.02;64.80;102948.66;5047089;28;20044;-96
2021/08/24 04:30:53;;;;;;;0.32;0.32;;;;;;;18.00;64.85;102945.13;5042317;28;20029;-93
2021/08/24 04:33:22;;;;;;;0.30;0.28;;;;;;;18.04;64.48;102952.19;5060232;28;20030;-92
2021/08/24 04:35:51;;;;;;;0.20;0.20;;;;;;;18.03;64.93;102958.47;5053735;28;20152;-96
2021/08/24 04:38:24;;;;;;;0.10;0.10;;;;;;;18.02;64.95;102960.28;5038102;28;20029;-96
2021/08/24 04:40:52;;;;;;;0.10;0.10;;;;;;;18.00;65.10;102964.78;5037566;28;20041;-96
2021/08/24 04:43:19;;;;;;;1.77;0.43;;;;;;;17.99;65.21;102965.69;5037942;28;20030;-96
2021/08/24 04:45:45;;;;;;;0.10;0.10;;;;;;;17.97;66.71;102962.16;5039511;28;20025;-96
2021/08/24 04:48:12;;;;;;;0.00;0.00;;;;;;;17.99;65.95;102965.69;5038153;28;20044;-96
2021/08/24 04:50:38;;;;;;;0.10;0.10;;;;;;;18.03;66.06;102967.41;5037690;28;20037;-88
2021/08/24 04:53:12;;;;;;;0.10;0.10;;;;;;;18.05;65.70;102970.06;5037194;28;20452;-96
2021/08/24 04:55:40;;;;;;;0.10;0.10;;;;;;;18.06;66.27;102970.03;5037076;28;20387;-96
2021/08/24 04:58:08;;;;;;;0.10;0.10;;;;;;;17.99;67.31;102968.38;5036687;28;20033;-96
2021/08/24 05:00:35;;;;;;;0.05;0.05;;;;;;;18.05;66.86;102970.94;5036805;28;20029;-93
2021/08/24 05:03:02;;;;;;;0.75;0.75;;;;;;;18.09;66.63;102970.00;5036293;28;20033;-95
2021/08/24 05:05:30;;;;;;;0.10;0.10;;;;;;;18.17;66.42;102968.94;5035516;28;20071;-93
2021/08/24 05:08:00;;;;;;;0.10;0.10;;;;;;;18.22;66.22;102961.72;5037154;28;20036;-93
2021/08/24 05:10:26;;;;;;;0.10;0.10;;;;;;;18.21;66.99;102968.88;5053746;28;20399;-96
2021/08/24 05:12:53;;;;;;;0.10;0.10;;;;;;;18.25;66.21;102965.22;5037775;28;20040;-94
2021/08/24 05:15:19;;;;;;;0.03;0.03;;;;;;;18.25;65.96;102964.34;5053259;28;20033;-96
2021/08/24 05:17:48;;;;;;;0.10;0.10;;;;;;;18.27;66.74;102973.25;5038823;28;20044;-92
2021/08/24 05:20:15;;;;;;;0.10;0.10;;;;;;;18.26;66.18;102968.78;5037715;28;20124;-96
2021/08/24 05:22:42;;;;;;;0.10;0.10;;;;;;;18.33;65.77;102967.78;5036884;28;20083;-96
2021/08/24 05:25:10;;;;;;;0.20;0.20;;;;;;;18.38;66.00;102973.94;5035902;28;20030;-96
2021/08/24 05:27:36;;;;;;;0.10;0.10;;;;;;;18.37;66.23;102974.84;5037939;28;20029;-96
2021/08/24 05:30:05;;;;;;;0.08;0.08;;;;;;;18.32;67.40;102968.69;5037484;28;20484;-93
2021/08/24 05:32:31;;;;;;;0.13;0.13;;;;;;;18.42;66.24;102972.97;5036728;28;20045;-96
2021/08/24 05:34:57;;;;;;;0.10;0.10;;;;;;;18.46;65.87;102965.72;5036421;28;20025;-92
2021/08/24 05:37:24;;;;;;;0.10;0.10;;;;;;;18.47;65.93;102975.56;5036530;28;20124;-96
2021/08/24 05:39:50;;;;;;;0.00;0.00;;;;;;;18.51;66.08;102971.03;5035369;28;20054;-94
2021/08/24 05:42:19;;;;;;;4.40;0.52;;;;;;;18.51;66.16;102974.56;5051013;28;20025;-96
2021/08/24 05:44:46;;;;;;;0.10;0.10;;;;;;;18.51;66.82;102973.72;5036056;28;20476;-96
2021/08/24 05:47:18;;;;;;;0.17;0.17;;;;;;;18.53;66.75;102977.22;5038619;28;20030;-89
2021/08/24 05:49:44;;;;;;;0.10;0.10;;;;;;;18.52;66.36;102975.47;5039272;28;20456;-96
2021/08/24 05:52:11;;;;;;;0.75;0.75;;;;;;;18.51;67.31;102973.72;5040473;28;20029;-96
2021/08/24 05:54:38;;;;;;;0.10;0.10;;;;;;;18.55;66.90;102976.28;5041498;28;20040;-96
2021/08/24 05:57:05;;;;;;;0.00;0.00;;;;;;;18.61;66.77;102974.41;5041099;28;20022;-94
2021/08/24 05:59:34;;;;;;;0.38;0.30;;;;;;;18.64;66.48;102971.66;5038615;28;20033;-96
2021/08/24 06:02:01;;;;;;;0.00;0.00;;;;;;;18.59;67.13;102974.41;5040006;28;20017;-95
2021/08/24 06:04:27;;;;;;;0.88;0.88;;;;;;;18.63;66.63;102977.94;5039652;28;20045;-85
2021/08/24 06:07:00;;;;;;;0.10;0.10;;;;;;;18.75;66.26;102981.28;5037224;28;20029;-95
2021/08/24 06:09:27;;;;;;;0.10;0.10;;;;;;;18.78;66.54;102982.09;5036559;28;20030;-91
2021/08/24 06:11:54;;;;;;;0.10;0.10;;;;;;;18.80;67.06;102996.41;5035367;28;20032;-83
2021/08/24 06:14:24;;;;;;;0.10;0.10;;;;;;;18.84;66.57;102998.09;5034895;28;20091;-96
2021/08/24 06:16:56;;;;;;;0.10;0.10;;;;;;;18.85;66.68;102997.19;5034856;28;20042;-96
2021/08/24 06:19:23;;;;;;;;;;;;;;;18.99;66.81;102989.78;5052503;28;20012;-95
2021/08/24 06:21:50;;;;;;;0.10;0.10;;;;;;;18.97;66.43;102996.09;5050659;28;19920;-97
2021/08/24 06:24:16;;;;;;;0.10;0.10;;;;;;;18.98;67.09;103001.44;5053678;28;20087;-96
2021/08/24 06:27:03;;;;;;;0.10;0.10;;;;;;;19.03;66.90;102998.66;5052865;28;20037;-88
2021/08/24 06:29:33;;;;;;;0.10;0.10;;;;;;;19.08;66.39;102994.06;5057314;28;20101;-84
2021/08/24 06:32:05;;;;;;;1.10;0.85;;;;;;;19.08;67.06;102997.63;5055623;28;20014;-87
2021/08/24 06:34:40;;;;;;;0.00;0.00;;;;;;;19.24;66.62;102997.31;5057967;28;20049;-83
2021/08/24 06:37:15;;;;;;;0.32;0.32;;;;;;;19.28;66.67;102993.63;5057497;28;20109;-89
2021/08/24 06:39:45;;;;;;;0.10;0.10;;;;;;;19.30;66.25;102997.16;5056975;28;20041;-87
2021/08/24 06:42:16;;;;;;;0.10;0.10;;;;;;;19.34;66.29;103003.31;5058259;28;20029;-82
2021/08/24 06:44:43;;;;;;;0.00;0.00;;;;;;;19.35;66.42;103006.00;5057984;28;20037;-88
2021/08/24 06:47:10;;;;;;;0.00;0.00;;;;;;;19.35;66.75;103008.69;5056567;28;20084;-93
2021/08/24 06:49:40;;;;;;;0.10;0.10;;;;;;;19.44;66.40;103009.38;5057247;28;20042;-82
2021/08/24 06:52:10;;;;;;;0.10;0.10;;;;;;;19.56;66.07;103010.00;5056930;28;20046;-83
2021/08/24 06:54:38;;;;;;;0.10;0.10;;;;;;;19.60;66.04;103005.44;5057371;28;20048;-83
2021/08/24 06:57:29;;;;;;;0.10;0.10;;;;;;;19.72;65.80;103013.19;5057763;28;20089;-82
2021/08/24 06:59:55;;;;;;;0.10;0.10;;;;;;;19.72;65.85;103015.88;5059803;28;20025;-84
2021/08/24 07:02:22;;;;;;;0.00;0.00;;;;;;;19.78;65.52;103011.28;5058580;28;20072;-84
2021/08/24 07:05:09;;;;;;;0.10;0.10;;;;;;;19.83;65.80;103017.47;5057421;28;20013;-83
2021/08/24 07:07:35;;;;;;;0.10;0.10;;;;;;;19.83;65.77;103017.47;5054129;28;20028;-91
2021/08/24 07:10:06;;;;;;;0.10;0.10;;;;;;;19.96;65.19;103013.56;5056998;28;20029;-96
2021/08/24 07:12:33;;;;;;;0.10;0.10;;;;;;;19.98;65.37;103016.22;5055393;28;20026;-89
2021/08/24 07:15:08;;;;;;;0.00;0.00;;;;;;;20.12;65.09;103018.53;5056691;28;20036;-82
2021/08/24 07:17:36;;;;;;;0.15;0.15;;;;;;;20.17;64.85;103027.38;5057014;28;20037;-83
2021/08/24 07:20:06;;;;;;;0.20;0.20;;;;;;;20.18;64.85;103024.66;5055674;28;20037;-82
2021/08/24 07:22:33;;;;;;;0.10;0.10;;;;;;;20.25;64.48;103017.31;5057394;28;20029;-82
2021/08/24 07:25:04;;;;;;;0.10;0.10;;;;;;;20.37;64.66;103021.47;5057051;28;20091;-82
2021/08/24 07:27:34;;;;;;;0.10;0.10;;;;;;;20.42;64.32;103016.84;5057064;28;20020;-93
2021/08/24 07:30:39;;;;;;;0.10;0.10;;;;;;;20.60;64.11;103015.47;5056505;28;20055;-82
2021/08/24 07:33:29;;;;;;;0.98;0.98;;;;;;;20.60;63.78;103018.16;5056601;28;20025;-82
2021/08/24 07:36:28;;;;;;;0.10;0.10;;;;;;;20.80;63.65;103008.69;5056238;28;20546;-83
2021/08/24 07:39:05;;;;;;;0.28;0.28;;;;;;;20.81;63.28;103015.81;5042667;28;20038;-82
2021/08/24 07:42:13;;;;;;;0.63;0.40;;;;;;;20.88;63.13;103021.91;5051334;28;20025;-84
2021/08/24 07:44:45;;;;;;;0.45;0.45;;;;;;;20.87;62.57;103017.44;5048004;28;20041;-87
2021/08/24 07:47:15;;;;;;;0.10;0.10;;;;;;;20.91;63.15;103019.13;5046668;28;20048;-82
2021/08/24 07:49:47;;;;;;;0.10;0.10;;;;;;;21.05;62.61;103013.31;5040816;28;20080;-82
2021/08/24 07:52:18;;;;;;;2.72;1.27;;;;;;;21.13;61.71;103025.66;5039690;28;20029;-82
2021/08/24 07:54:46;;;;;;;0.20;0.20;;;;;;;21.20;62.25;103012.88;5040457;28;20498;-83
2021/08/24 07:57:12;;;;;;;0.45;0.45;;;;;;;21.28;61.95;103010.84;5040271;28;20045;-82
2021/08/24 07:59:38;;;;;;;0.30;0.30;;;;;;;21.33;60.70;103016.97;5038607;28;20433;-82
2021/08/24 08:02:05;;;;;;;1.10;1.00;;;;;;;21.45;61.04;103020.22;5040958;28;20473;-82
2021/08/24 08:04:33;;;;;;;0.15;0.15;;;;;;;21.51;60.83;103014.63;5042539;28;20489;-82
2021/08/24 08:07:01;;;;;;;0.10;0.10;;;;;;;21.50;59.59;103020.94;5041812;28;20049;-82
2021/08/24 08:09:33;;;;;;;0.10;0.10;;;;;;;21.53;59.02;103028.06;5042728;28;20492;-82
2021/08/24 08:12:01;;;;;;;;;;;;;;;21.72;59.15;103021.19;5043567;28;20531;-82
2021/08/24 08:14:29;;;;;;;0.10;0.10;;;;;;;21.70;59.44;103025.72;5043517;28;20356;-82
2021/08/24 08:17:03;;;;;;;0.10;0.10;;;;;;;21.73;58.80;103019.34;5046407;28;20080;-82
2021/08/24 08:19:54;;;;;;;0.10;0.10;;;;;;;21.87;59.42;103030.59;5044336;28;20068;-82
2021/08/24 08:22:25;;;;;;;0.10;0.10;;;;;;;21.93;59.10;103027.69;5043702;28;20101;-82
2021/08/24 08:25:00;;;;;;;0.30;0.30;;;;;;;21.91;58.24;103012.47;5042337;28;20572;-83
2021/08/24 08:27:35;;;;;;;0.20;0.20;;;;;;;22.03;57.86;103022.88;5042458;28;20029;-82
2021/08/24 08:30:08;;;;;;;0.10;0.10;;;;;;;22.06;57.98;103024.56;5042339;28;20498;-82
2021/08/24 08:32:40;;;;;;;0.20;0.20;;;;;;;22.15;58.20;103024.25;5051050;28;20484;-82
2021/08/24 08:35:31;;;;;;;0.15;0.15;;;;;;;22.21;56.90;103015.94;5041914;28;20413;-82
2021/08/24 08:37:59;;;;;;;0.10;0.10;;;;;;;22.16;57.38;103023.31;5043083;28;20121;-83
2021/08/24 08:40:51;;;;;;;0.10;0.10;;;;;;;22.27;56.84;103018.41;5041685;28;20487;-83
2021/08/24 08:49:53;;;;;;;0.30;0.30;;;;;;;22.22;56.47;103023.09;5091939;27;20426;-81
2021/08/24 08:53:00;;;;;;;0.50;0.50;;;;;;;22.23;56.96;103024.88;5088385;28;20036;-83
2021/08/24 08:55:35;;;;;;;0.10;0.10;;;;;;;22.22;56.84;103017.69;5091471;28;20036;-82
2021/08/24 09:04:37;;;;;;;0.10;0.10;;;;;;;22.51;56.53;103026.63;5070488;28;20422;-86
2021/08/24 09:07:10;;;;;;;1.00;0.88;;;;;;;22.50;55.35;103022.16;5070860;28;20108;-81
2021/08/24 09:09:39;;;;;;;0.10;0.10;;;;;;;22.67;55.19;103020.66;5057632;28;20029;-86
2021/08/24 09:12:09;;;;;;;0.80;0.80;;;;;;;22.53;55.28;103024.75;5050911;28;20064;-85
2021/08/24 09:14:45;;;;;;;0.10;0.10;;;;;;;22.72;55.54;103026.78;5051005;28;20029;-82
2021/08/24 09:17:37;;;;;;;0.10;0.10;;;;;;;22.77;54.56;103014.84;5049644;28;20448;-82
2021/08/24 09:23:12;;;;;;;0.10;0.10;;;;;;;23.04;53.68;103022.88;5071360;28;20455;-95
2021/08/24 09:28:34;;;;;;;0.10;0.10;;;;;;;23.33;54.74;103023.59;5086769;28;20441;-94
2021/08/24 09:31:09;;;;;;;0.13;0.13;;;;;;;23.42;54.59;103025.03;5070372;28;20036;-91
2021/08/24 09:33:36;;;;;;;0.10;0.10;;;;;;;23.45;54.52;103027.63;5079879;28;20025;-93
2021/08/24 09:36:03;;;;;;;0.03;0.03;;;;;;;23.41;54.27;103026.88;5074164;28;20072;-94
2021/08/24 09:38:31;;;;;;;0.20;0.20;;;;;;;23.24;54.23;103024.84;5070187;28;20037;-96
2021/08/24 09:41:15;;;;;;;3.40;0.63;;;;;;;23.25;54.24;103026.59;5071549;28;20098;-96
2021/08/24 09:43:42;;;;;;;0.10;0.10;;;;;;;23.27;53.54;103027.41;5071120;28;20112;-96
2021/08/24 09:46:28;;;;;;;0.08;0.08;;;;;;;23.54;53.54;103020.94;5070964;28;20082;-96
2021/08/24 09:49:04;;;;;;;0.50;0.50;;;;;;;23.52;53.37;103018.31;5070932;28;20090;-96
2021/08/24 09:54:45;;;;;;;0.10;0.10;;;;;;;23.82;53.21;103026.13;5091167;27;20405;-93
2021/08/24 10:00:31;;;;;;;0.10;0.10;;;;;;;23.98;52.76;103022.81;5053228;28;20404;-93
2021/08/24 10:02:59;;;;;;;0.10;0.10;;;;;;;23.94;52.23;103015.75;5051067;28;20039;-95
2021/08/24 10:08:32;;;;;;;0.10;0.10;;;;;;;24.07;51.18;103022.41;5069113;28;20408;-94
2021/08/24 10:11:02;;;;;;;0.50;0.50;;;;;;;23.99;51.64;103009.22;5050961;28;20079;-93
2021/08/24 10:13:39;;;;;;;0.50;0.50;;;;;;;24.03;51.66;103018.09;5066437;28;20129;-93
2021/08/24 10:16:28;;;;;;;0.10;0.10;;;;;;;24.06;51.12;103023.34;5051378;28;20029;-93
2021/08/24 10:19:20;;;;;;;0.10;0.10;;;;;;;24.18;50.59;103017.41;5050651;28;20100;-93
2021/08/24 10:22:06;;;;;;;0.10;0.10;;;;;;;24.26;50.42;103010.78;5051079;28;20037;-93
2021/08/24 10:24:36;;;;;;;0.20;0.20;;;;;;;24.29;51.28;103008.81;5049362;28;20040;-93
2021/08/24 10:27:07;;;;;;;0.10;0.10;;;;;;;24.33;51.40;102999.59;5050866;28;20040;-94
2021/08/24 10:29:37;;;;;;;1.30;1.20;;;;;;;24.46;50.33;103008.09;5049211;28;20041;-92
2021/08/24 10:32:09;;;;;;;0.10;0.10;;;;;;;24.50;50.10;103003.38;5050414;28;20017;-92
2021/08/24 10:34:41;;;;;;;0.10;0.10;;;;;;;24.44;49.49;103007.25;5050789;28;20391;-91
2021/08/24 10:37:31;;;;;;;0.10;0.10;;;;;;;24.57;49.78;102998.59;5050677;28;20091;-93
2021/08/24 10:43:22;;;;;;;0.10;0.10;;;;;;;24.58;50.24;102994.94;5091087;28;20418;-92
2021/08/24 10:46:11;;;;;;;0.20;0.20;;;;;;;24.66;49.21;102984.63;5071004;28;20112;-92
2021/08/24 10:48:39;;;;;;;0.10;0.10;;;;;;;24.59;49.16;102994.84;5065764;28;20052;-92
2021/08/24 10:51:12;;;;;;;0.28;0.28;;;;;;;24.74;48.72;102985.16;5050912;28;20027;-92
2021/08/24 10:56:36;;;;;;;0.10;0.10;;;;;;;24.85;48.99;102982.84;5091051;27;20410;-90
2021/08/24 10:59:22;;;;;;;;;;;;;;;24.90;47.71;102987.16;5061763;28;20029;-92
2021/08/24 11:02:01;;;;;;;0.10;0.10;;;;;;;24.87;47.12;102997.22;5050873;28;20279;-91
2021/08/24 11:04:57;;;;;;;0.50;0.50;;;;;;;25.00;46.52;102988.50;5049735;28;20029;-89
2021/08/24 11:07:51;;;;;;;0.10;0.10;;;;;;;24.96;46.83;102986.88;5050603;28;20056;-92
2021/08/24 11:19:02;;;;;;;0.35;0.35;;;;;;;25.00;45.26;102985.78;5064106;28;20485;-92
2021/08/24 11:21:49;;;;;;;0.20;0.20;;;;;;;25.15;46.51;102986.88;5051308;28;20061;-91
2021/08/24 11:30:09;;;;;;;0.10;0.10;;;;;;;25.34;44.62;102971.44;5074517;27;20466;-92
2021/08/24 11:32:42;;;;;;;0.10;0.10;;;;;;;25.27;44.92;102969.13;5073145;28;20083;-88
2021/08/24 11:35:13;;;;;;;2.60;0.45;;;;;;;25.47;45.08;102955.50;5071041;28;20024;-92
2021/08/24 11:38:00;;;;;;;0.10;0.10;;;;;;;25.63;45.29;102962.84;5071060;28;20021;-91
2021/08/24 11:40:52;;;;;;;0.10;0.10;;;;;;;25.69;44.72;102965.25;5086258;28;20033;-90
2021/08/24 11:43:28;;;;;;;0.65;0.65;;;;;;;25.77;44.88;102957.59;5070566;28;20056;-90
2021/08/24 11:45:58;;;;;;;0.10;0.10;;;;;;;25.85;45.05;102962.63;5070614;28;20037;-90
2021/08/24 11:48:38;;;;;;;0.10;0.10;;;;;;;25.94;43.69;102964.00;5070808;28;20029;-91
2021/08/24 11:51:25;;;;;;;0.10;0.10;;;;;;;26.00;44.27;102955.53;5070477;28;20059;-93
2021/08/24 11:54:02;;;;;;;0.32;0.32;;;;;;;26.06;44.44;102957.09;5070741;28;20033;-92
2021/08/24 11:56:43;;;;;;;0.10;0.10;;;;;;;26.05;43.08;102955.31;5071181;28;20036;-92
2021/08/24 11:59:22;;;;;;;0.25;0.25;;;;;;;26.22;43.27;102952.59;5072102;28;20025;-91
2021/08/24 12:01:49;;;;;;;0.20;0.20;;;;;;;26.23;43.15;102948.94;5070407;28;20116;-93
2021/08/24 12:04:21;;;;;;;0.00;0.00;;;;;;;26.34;43.68;102955.63;5070296;28;20037;-93
2021/08/24 12:07:09;;;;;;;0.10;0.10;;;;;;;26.41;42.97;102944.31;5070110;28;20031;-93
2021/08/24 12:09:41;;;;;;;0.20;0.20;;;;;;;26.41;43.34;102936.16;5070477;28;20094;-91
2021/08/24 12:12:16;;;;;;;0.10;0.10;;;;;;;26.55;43.88;102940.84;5070142;28;20028;-93
2021/08/24 12:17:38;;;;;;;0.10;0.10;;;;;;;26.58;42.33;102934.34;5091042;28;20509;-92
2021/08/24 12:20:13;;;;;;;0.30;0.30;;;;;;;26.73;43.01;102936.25;5054531;28;20491;-91
2021/08/24 12:22:53;;;;;;;0.10;0.10;;;;;;;26.66;42.39;102933.97;5050802;28;20491;-89
2021/08/24 12:33:41;;;;;;;0.10;0.10;;;;;;;26.86;42.51;102922.00;5091214;27;20439;-90
2021/08/24 12:39:32;;;;;;;0.10;0.10;;;;;;;26.91;42.43;102909.88;5083072;27;20415;-90
2021/08/24 12:42:27;;;;;;;0.20;0.20;;;;;;;26.87;42.43;102916.47;5070628;28;20391;-92
2021/08/24 12:48:05;;;;;;;0.05;0.05;;;;;;;26.84;42.12;102910.31;5091138;28;20410;-89
2021/08/24 12:56:11;;;;;;;0.10;0.10;;;;;;;26.94;42.15;102906.09;5090995;27;20418;-92
2021/08/24 13:01:28;;;;;;;0.30;0.30;;;;;;;26.98;41.78;102912.25;5091082;28;20420;-92
2021/08/24 13:07:10;;;;;;;0.20;0.20;;;;;;;27.07;41.92;102904.44;5070870;28;20434;-90
2021/08/24 13:12:34;;;;;;;0.20;0.20;;;;;;;27.32;41.57;102908.44;5091121;27;20400;-86
2021/08/24 13:15:04;;;;;;;0.25;0.25;;;;;;;27.38;41.59;102908.09;5090915;28;20036;-91
2021/08/24 13:17:53;;;;;;;0.22;0.22;;;;;;;27.55;41.27;102906.22;5091428;28;20020;-89
2021/08/24 13:20:33;;;;;;;0.10;0.10;;;;;;;27.55;41.61;102912.56;5089514;28;20033;-92
2021/08/24 13:23:05;;;;;;;0.10;0.10;;;;;;;27.55;40.09;102906.22;5091160;28;20057;-89
2021/08/24 13:25:34;;;;;;;0.10;0.10;;;;;;;27.68;41.26;102896.34;5090735;28;20390;-92
2021/08/24 13:28:06;;;;;;;0.57;0.57;;;;;;;27.65;41.32;102891.09;5090898;28;20047;-91
2021/08/24 13:33:34;;;;;;;0.10;0.10;;;;;;;27.67;40.90;102885.56;5071730;28;20420;-90
2021/08/24 13:36:07;;;;;;;0.63;0.63;;;;;;;27.74;39.29;102885.09;5069557;28;20094;-88
2021/08/24 13:38:36;;;;;;;0.10;0.10;;;;;;;27.78;40.25;102880.34;5070716;28;20387;-92
2021/08/24 13:44:02;;;;;;;6.30;0.80;;;;;;;27.82;40.61;102875.59;5070641;28;20464;-92
2021/08/24 13:46:34;;;;;;;0.10;0.10;;;;;;;27.97;40.23;102871.88;5050657;28;20104;-92
2021/08/24 13:49:04;;;;;;;0.10;0.10;;;;;;;27.94;40.76;102869.38;5043672;28;20116;-92